sensor_id;sensor_type;location;lat;lon;timestamp;pressure;altitude;pressure_sealevel;temperature;humidity
44309;BME280;30022;55.846;37.340;2023-04-02T00:01:34;72064.53;;;-143.51;100.00
44309;BME280;30022;55.846;37.340;2023-04-02T00:04:05;71555.75;;;-143.51;100.00
44309;BME280;30022;55.846;37.340;2023-04-02T00:06:34;70792.72;;;-143.51;100.00
44309;BME280;30022;55.846;37.340;2023-04-02T00:11:40;71047.03;;;-143.51;100.00
44309;BME280;30022;55.846;37.340;2023-04-02T00:16:47;72064.53;;;-143.51;100.00
44309;BME280;30022;55.846;37.340;2023-04-02T00:19:18;72064.53;;;-143.51;100.00
44309;BME280;30022;55.846;37.340;2023-04-02T00:21:44;71555.75;;;-143.51;100.00
44309;BME280;30022;55.846;37.340;2023-04-02T00:24:15;70792.72;;;-143.51;100.00
44309;BME280;30022;55.846;37.340;2023-04-02T00:26:48;72064.53;;;-143.51;100.00
44309;BME280;30022;55.846;37.340;2023-04-02T00:29:15;73336.75;;;-143.51;100.00
44309;BME280;30022;55.846;37.340;2023-04-02T00:31:48;73336.75;;;-143.51;100.00
44309;BME280;30022;55.846;37.340;2023-04-02T00:34:36;71555.75;;;-143.51;100.00
44309;BME280;30022;55.846;37.340;2023-04-02T00:37:00;68504.47;;;-143.51;100.00
44309;BME280;30022;55.846;37.340;2023-04-02T00:39:30;72064.53;;;-143.51;100.00
44309;BME280;30022;55.846;37.340;2023-04-02T00:41:57;71555.75;;;-143.51;100.00
44309;BME280;30022;55.846;37.340;2023-04-02T00:44:38;71810.13;;;-143.51;100.00
44309;BME280;30022;55.846;37.340;2023-04-02T00:47:18;72318.94;;;-143.51;100.00
44309;BME280;30022;55.846;37.340;2023-04-02T00:49:44;70792.72;;;-143.51;100.00
44309;BME280;30022;55.846;37.340;2023-04-02T00:52:11;73082.28;;;-143.51;100.00
44309;BME280;30022;55.846;37.340;2023-04-02T00:55:00;72318.94;;;-143.51;100.00
44309;BME280;30022;55.846;37.340;2023-04-02T00:57:24;70792.72;;;-143.51;100.00
44309;BME280;30022;55.846;37.340;2023-04-02T00:59:57;71047.03;;;-143.51;100.00
44309;BME280;30022;55.846;37.340;2023-04-02T01:02:28;73082.28;;;-143.51;100.00
44309;BME280;30022;55.846;37.340;2023-04-02T01:07:22;70792.72;;;-143.51;100.00
44309;BME280;30022;55.846;37.340;2023-04-02T01:09:54;73336.75;;;-143.51;100.00
44309;BME280;30022;55.846;37.340;2023-04-02T01:12:27;70029.81;;;-143.51;100.00
44309;BME280;30022;55.846;37.340;2023-04-02T01:15:36;72827.81;;;-143.51;100.00
44309;BME280;30022;55.846;37.340;2023-04-02T01:17:46;75118.53;;;-143.51;100.00
44309;BME280;30022;55.846;37.340;2023-04-02T01:25:35;72573.38;;;-143.51;100.00
44309;BME280;30022;55.846;37.340;2023-04-02T01:28:06;73082.28;;;-143.51;100.00
44309;BME280;30022;55.846;37.340;2023-04-02T01:30:34;74863.94;;;-143.51;100.00
44309;BME280;30022;55.846;37.340;2023-04-02T01:33:01;75118.53;;;-143.51;100.00
44309;BME280;30022;55.846;37.340;2023-04-02T01:35:28;74100.28;;;-143.51;100.00
44309;BME280;30022;55.846;37.340;2023-04-02T01:38:02;72827.81;;;-143.51;100.00
44309;BME280;30022;55.846;37.340;2023-04-02T01:40:36;73845.75;;;-143.51;100.00
44309;BME280;30022;55.846;37.340;2023-04-02T01:45:48;71810.13;;;-143.51;100.00
44309;BME280;30022;55.846;37.340;2023-04-02T01:48:16;71810.13;;;-143.51;100.00
44309;BME280;30022;55.846;37.340;2023-04-02T01:50:44;69267.06;;;-143.51;100.00
44309;BME280;30022;55.846;37.340;2023-04-02T01:53:14;68504.47;;;-143.51;100.00
44309;BME280;30022;55.846;37.340;2023-04-02T01:58:07;71555.75;;;-143.51;100.00
44309;BME280;30022;55.846;37.340;2023-04-02T02:00:34;69012.84;;;-143.51;100.00
44309;BME280;30022;55.846;37.340;2023-04-02T02:03:01;70284.09;;;-143.51;100.00
44309;BME280;30022;55.846;37.340;2023-04-02T02:05:28;69775.53;;;-143.51;100.00
44309;BME280;30022;55.846;37.340;2023-04-02T02:07:55;70792.72;;;-143.51;100.00
44309;BME280;30022;55.846;37.340;2023-04-02T02:10:26;69775.53;;;-143.51;100.00
44309;BME280;30022;55.846;37.340;2023-04-02T02:12:52;69775.53;;;-143.51;100.00
44309;BME280;30022;55.846;37.340;2023-04-02T02:15:19;67742.00;;;-143.51;100.00
44309;BME280;30022;55.846;37.340;2023-04-02T02:17:45;67742.00;;;-143.51;100.00
44309;BME280;30022;55.846;37.340;2023-04-02T02:20:12;70029.81;;;-143.51;100.00
44309;BME280;30022;55.846;37.340;2023-04-02T02:22:39;70029.81;;;-143.51;100.00
44309;BME280;30022;55.846;37.340;2023-04-02T02:25:10;70538.41;;;-143.51;100.00
44309;BME280;30022;55.846;37.340;2023-04-02T02:30:19;69521.28;;;-143.51;100.00
44309;BME280;30022;55.846;37.340;2023-04-02T02:32:58;66513.22;;;-143.51;100.00
44309;BME280;30022;55.846;37.340;2023-04-02T02:35:28;66594.63;;;-143.51;100.00
44309;BME280;30022;55.846;37.340;2023-04-02T02:38:00;64366.28;;;-143.51;100.00
44309;BME280;30022;55.846;37.340;2023-04-02T02:40:33;66725.63;;;-143.51;100.00
44309;BME280;30022;55.846;37.340;2023-04-02T02:43:01;66725.63;;;-143.51;100.00
44309;BME280;30022;55.846;37.340;2023-04-02T02:45:31;67233.78;;;-143.51;100.00
44309;BME280;30022;55.846;37.340;2023-04-02T02:47:59;65499.16;;;-143.51;100.00
44309;BME280;30022;55.846;37.340;2023-04-02T02:50:27;63529.25;;;-143.51;100.00
44309;BME280;30022;55.846;37.340;2023-04-02T02:52:58;64564.66;;;-143.51;100.00
44309;BME280;30022;55.846;37.340;2023-04-02T02:55:30;65344.38;;;-143.51;100.00
44309;BME280;30022;55.846;37.340;2023-04-02T03:00:59;67233.78;;;-143.51;100.00
44309;BME280;30022;55.846;37.340;2023-04-02T03:03:26;65616.22;;;-143.51;100.00
44309;BME280;30022;55.846;37.340;2023-04-02T03:05:59;66679.97;;;-143.51;100.00
44309;BME280;30022;55.846;37.340;2023-04-02T03:08:29;63594.72;;;-143.51;100.00
44309;BME280;30022;55.846;37.340;2023-04-02T03:11:09;63876.34;;;-143.51;100.00
44309;BME280;30022;55.846;37.340;2023-04-02T03:13:36;63392.41;;;-143.51;100.00
44309;BME280;30022;55.846;37.340;2023-04-02T03:16:13;66062.72;;;-143.51;100.00
44309;BME280;30022;55.846;37.340;2023-04-02T03:21:15;65417.78;;;-143.51;100.00
44309;BME280;30022;55.846;37.340;2023-04-02T03:23:44;63939.81;;;-143.51;100.00
44309;BME280;30022;55.846;37.340;2023-04-02T03:28:42;63991.41;;;-143.51;100.00
44309;BME280;30022;55.846;37.340;2023-04-02T03:31:18;63600.66;;;-143.51;100.00
44309;BME280;30022;55.846;37.340;2023-04-02T03:33:49;63856.50;;;-143.51;100.00
44309;BME280;30022;55.846;37.340;2023-04-02T03:36:24;65173.75;;;-143.51;100.00
44309;BME280;30022;55.846;37.340;2023-04-02T03:41:24;62632.91;;;-143.51;100.00
44309;BME280;30022;55.846;37.340;2023-04-02T03:43:55;60807.16;;;-143.51;100.00
44309;BME280;30022;55.846;37.340;2023-04-02T03:46:24;62414.81;;;-143.51;100.00
44309;BME280;30022;55.846;37.340;2023-04-02T03:48:53;61209.50;;;-143.51;100.00
44309;BME280;30022;55.846;37.340;2023-04-02T03:51:35;61952.88;;;-143.51;100.00
44309;BME280;30022;55.846;37.340;2023-04-02T03:54:04;60299.81;;;-143.51;100.00
44309;BME280;30022;55.846;37.340;2023-04-02T03:56:34;60270.09;;;-143.51;100.00
44309;BME280;30022;55.846;37.340;2023-04-02T03:59:14;59588.44;;;-143.51;100.00
44309;BME280;30022;55.846;37.340;2023-04-02T04:01:45;58726.66;;;-143.51;100.00
44309;BME280;30022;55.846;37.340;2023-04-02T04:04:15;60151.19;;;-143.51;100.00
44309;BME280;30022;55.846;37.340;2023-04-02T04:06:42;58881.19;;;-143.51;100.00
44309;BME280;30022;55.846;37.340;2023-04-02T04:09:23;59350.69;;;-143.51;100.00
44309;BME280;30022;55.846;37.340;2023-04-02T04:11:52;58425.59;;;-143.51;100.00
44309;BME280;30022;55.846;37.340;2023-04-02T04:14:28;59255.59;;;-143.51;100.00
44309;BME280;30022;55.846;37.340;2023-04-02T04:21:49;55328.91;;;-143.51;100.00
44309;BME280;30022;55.846;37.340;2023-04-02T04:24:23;56770.03;;;-143.51;100.00
44309;BME280;30022;55.846;37.340;2023-04-02T04:26:55;57641.28;;;-143.51;100.00
44309;BME280;30022;55.846;37.340;2023-04-02T04:29:45;58306.75;;;-143.51;100.00
44309;BME280;30022;55.846;37.340;2023-04-02T04:34:47;56338.44;;;-143.51;100.00
44309;BME280;30022;55.846;37.340;2023-04-02T04:37:22;57286.81;;;-143.51;100.00
44309;BME280;30022;55.846;37.340;2023-04-02T04:39:55;56621.53;;;-143.51;100.00
44309;BME280;30022;55.846;37.340;2023-04-02T04:42:23;54954.88;;;-143.51;100.00
44309;BME280;30022;55.846;37.340;2023-04-02T04:47:36;54472.03;;;-143.51;100.00
44309;BME280;30022;55.846;37.340;2023-04-02T04:50:06;55457.56;;;-143.51;100.00
44309;BME280;30022;55.846;37.340;2023-04-02T04:52:37;53983.31;;;-143.51;100.00
44309;BME280;30022;55.846;37.340;2023-04-02T04:57:49;55558.50;;;-143.51;100.00
44309;BME280;30022;55.846;37.340;2023-04-02T05:00:21;54517.53;;;-143.51;100.00
44309;BME280;30022;55.846;37.340;2023-04-02T05:03:04;54038.69;;;-143.51;100.00
44309;BME280;30022;55.846;37.340;2023-04-02T05:05:35;54624.38;;;-143.51;100.00
44309;BME280;30022;55.846;37.340;2023-04-02T05:08:04;53603.44;;;-143.51;100.00
44309;BME280;30022;55.846;37.340;2023-04-02T05:13:21;53304.72;;;-143.51;100.00
44309;BME280;30022;55.846;37.340;2023-04-02T05:15:54;52159.53;;;-143.51;100.00
44309;BME280;30022;55.846;37.340;2023-04-02T05:20:54;53348.25;;;-143.51;100.00
44309;BME280;30022;55.846;37.340;2023-04-02T05:23:25;52691.53;;;-143.51;100.00
44309;BME280;30022;55.846;37.340;2023-04-02T05:25:56;52139.75;;;-143.51;100.00
44309;BME280;30022;55.846;37.340;2023-04-02T05:33:39;51716.56;;;-143.51;100.00
44309;BME280;30022;55.846;37.340;2023-04-02T05:36:10;51586.06;;;-143.51;100.00
44309;BME280;30022;55.846;37.340;2023-04-02T05:38:46;50961.28;;;-143.51;100.00
44309;BME280;30022;55.846;37.340;2023-04-02T05:41:21;51987.47;;;-143.51;100.00
44309;BME280;30022;55.846;37.340;2023-04-02T05:43:50;52297.97;;;-143.51;100.00
44309;BME280;30022;55.846;37.340;2023-04-02T05:46:23;51491.16;;;-143.51;100.00
44309;BME280;30022;55.846;37.340;2023-04-02T05:48:54;52266.31;;;-143.51;100.00
44309;BME280;30022;55.846;37.340;2023-04-02T05:51:23;51214.34;;;-143.51;100.00
44309;BME280;30022;55.846;37.340;2023-04-02T05:53:52;51516.84;;;-143.51;100.00
44309;BME280;30022;55.846;37.340;2023-04-02T05:58:59;51058.16;;;-143.51;100.00
44309;BME280;30022;55.846;37.340;2023-04-02T06:01:54;50646.94;;;-143.51;100.00
44309;BME280;30022;55.846;37.340;2023-04-02T06:07:07;51582.09;;;-143.51;100.00
44309;BME280;30022;55.846;37.340;2023-04-02T06:15:03;51578.16;;;-143.51;100.00
44309;BME280;30022;55.846;37.340;2023-04-02T06:18:04;51036.41;;;-143.51;100.00
44309;BME280;30022;55.846;37.340;2023-04-02T06:20:32;51700.75;;;-143.51;100.00
44309;BME280;30022;55.846;37.340;2023-04-02T06:23:02;51659.22;;;-143.51;100.00
44309;BME280;30022;55.846;37.340;2023-04-02T06:28:17;51190.63;;;-143.51;100.00
44309;BME280;30022;55.846;37.340;2023-04-02T06:30:51;50285.19;;;-143.51;100.00
44309;BME280;30022;55.846;37.340;2023-04-02T06:33:19;51568.25;;;-143.51;100.00
44309;BME280;30022;55.846;37.340;2023-04-02T06:35:46;51380.41;;;-143.51;100.00
44309;BME280;30022;55.846;37.340;2023-04-02T06:38:23;51514.88;;;-143.51;100.00
44309;BME280;30022;55.846;37.340;2023-04-02T06:40:55;50996.84;;;-143.51;100.00
44309;BME280;30022;55.846;37.340;2023-04-02T06:43:58;50631.13;;;-143.51;100.00
44309;BME280;30022;55.846;37.340;2023-04-02T06:51:44;50174.50;;;-143.51;100.00
44309;BME280;30022;55.846;37.340;2023-04-02T06:54:13;50109.28;;;-143.51;100.00
44309;BME280;30022;55.846;37.340;2023-04-02T06:56:50;49911.63;;;-143.51;100.00
44309;BME280;30022;55.846;37.340;2023-04-02T06:59:30;49542.03;;;-143.51;100.00
44309;BME280;30022;55.846;37.340;2023-04-02T07:01:57;49526.22;;;-143.51;100.00
44309;BME280;30022;55.846;37.340;2023-04-02T07:04:23;49828.59;;;-143.51;100.00
44309;BME280;30022;55.846;37.340;2023-04-02T07:06:51;49911.63;;;-143.51;100.00
44309;BME280;30022;55.846;37.340;2023-04-02T07:09:18;49824.66;;;-143.51;100.00
44309;BME280;30022;55.846;37.340;2023-04-02T07:11:48;50079.63;;;-143.51;100.00
44309;BME280;30022;55.846;37.340;2023-04-02T07:14:16;50087.53;;;-143.51;100.00
44309;BME280;30022;55.846;37.340;2023-04-02T07:16:42;49411.59;;;-143.51;100.00
44309;BME280;30022;55.846;37.340;2023-04-02T07:19:19;49441.25;;;-143.51;100.00
44309;BME280;30022;55.846;37.340;2023-04-02T07:21:45;50002.53;;;-143.51;100.00
44309;BME280;30022;55.846;37.340;2023-04-02T07:24:11;49680.38;;;-143.51;100.00
44309;BME280;30022;55.846;37.340;2023-04-02T07:26:37;49883.94;;;-143.51;100.00
44309;BME280;30022;55.846;37.340;2023-04-02T07:29:05;49696.19;;;-143.51;100.00
44309;BME280;30022;55.846;37.340;2023-04-02T07:31:31;49686.31;;;-143.51;100.00
44309;BME280;30022;55.846;37.340;2023-04-02T07:33:58;49824.66;;;-143.51;100.00
44309;BME280;30022;55.846;37.340;2023-04-02T07:36:24;50061.84;;;-143.51;100.00
44309;BME280;30022;55.846;37.340;2023-04-02T07:38:50;48915.59;;;-143.51;100.00
44309;BME280;30022;55.846;37.340;2023-04-02T07:41:16;49617.13;;;-143.51;100.00
44309;BME280;30022;55.846;37.340;2023-04-02T07:43:45;49233.75;;;-143.51;100.00
44309;BME280;30022;55.846;37.340;2023-04-02T07:46:12;49435.31;;;-143.51;100.00
44309;BME280;30022;55.846;37.340;2023-04-02T07:48:42;49160.63;;;-143.51;100.00
44309;BME280;30022;55.846;37.340;2023-04-02T07:51:31;49217.94;;;-143.51;100.00
44309;BME280;30022;55.846;37.340;2023-04-02T07:53:57;49004.53;;;-143.51;100.00
44309;BME280;30022;55.846;37.340;2023-04-02T07:56:23;48801.00;;;-143.51;100.00
44309;BME280;30022;55.846;37.340;2023-04-02T07:58:51;49073.69;;;-143.51;100.00
44309;BME280;30022;55.846;37.340;2023-04-02T08:01:19;49338.47;;;-143.51;100.00
44309;BME280;30022;55.846;37.340;2023-04-02T08:03:46;48676.50;;;-143.51;100.00
44309;BME280;30022;55.846;37.340;2023-04-02T08:06:12;49004.53;;;-143.51;100.00
44309;BME280;30022;55.846;37.340;2023-04-02T08:08:38;48820.75;;;-143.51;100.00
44309;BME280;30022;55.846;37.340;2023-04-02T08:11:04;48700.22;;;-143.51;100.00
44309;BME280;30022;55.846;37.340;2023-04-02T08:13:32;48783.22;;;-143.51;100.00
44309;BME280;30022;55.846;37.340;2023-04-02T08:15:59;48585.63;;;-143.51;100.00
44309;BME280;30022;55.846;37.340;2023-04-02T08:18:24;49310.81;;;-143.51;100.00
44309;BME280;30022;55.846;37.340;2023-04-02T08:20:51;49279.19;;;-143.51;100.00
44309;BME280;30022;55.846;37.340;2023-04-02T08:23:18;49295.00;;;-143.51;100.00
44309;BME280;30022;55.846;37.340;2023-04-02T08:25:44;48889.91;;;-143.51;100.00
44309;BME280;30022;55.846;37.340;2023-04-02T08:28:11;49291.06;;;-143.51;100.00
44309;BME280;30022;55.846;37.340;2023-04-02T08:30:36;49368.13;;;-143.51;100.00
44309;BME280;30022;55.846;37.340;2023-04-02T08:33:02;48870.16;;;-143.51;100.00
44309;BME280;30022;55.846;37.340;2023-04-02T08:35:28;48802.97;;;-143.51;100.00
44309;BME280;30022;55.846;37.340;2023-04-02T08:37:54;48611.31;;;-143.51;100.00
44309;BME280;30022;55.846;37.340;2023-04-02T08:40:36;48866.19;;;-143.51;100.00
44309;BME280;30022;55.846;37.340;2023-04-02T08:48:12;48814.81;;;-143.51;100.00
44309;BME280;30022;55.846;37.340;2023-04-02T08:50:40;48530.31;;;-143.51;100.00
44309;BME280;30022;55.846;37.340;2023-04-02T08:53:09;48585.63;;;-143.51;100.00
44309;BME280;30022;55.846;37.340;2023-04-02T08:55:56;48874.09;;;-143.51;100.00
44309;BME280;30022;55.846;37.340;2023-04-02T09:00:59;48923.50;;;-143.51;100.00
44309;BME280;30022;55.846;37.340;2023-04-02T09:03:27;49158.66;;;-143.51;100.00
44309;BME280;30022;55.846;37.340;2023-04-02T09:05:55;48822.72;;;-143.51;100.00
44309;BME280;30022;55.846;37.340;2023-04-02T09:08:23;48802.97;;;-143.51;100.00
44309;BME280;30022;55.846;37.340;2023-04-02T09:10:54;48783.22;;;-143.51;100.00
44309;BME280;30022;55.846;37.340;2023-04-02T09:13:24;48789.13;;;-143.51;100.00
44309;BME280;30022;55.846;37.340;2023-04-02T09:16:00;48785.19;;;-143.51;100.00
44309;BME280;30022;55.846;37.340;2023-04-02T09:18:29;48931.41;;;-143.51;100.00
44309;BME280;30022;55.846;37.340;2023-04-02T09:20:56;49024.28;;;-143.51;100.00
44309;BME280;30022;55.846;37.340;2023-04-02T09:23:23;48889.91;;;-143.51;100.00
44309;BME280;30022;55.846;37.340;2023-04-02T09:25:52;48878.06;;;-143.51;100.00
44309;BME280;30022;55.846;37.340;2023-04-02T09:28:19;48755.53;;;-143.51;100.00
44309;BME280;30022;55.846;37.340;2023-04-02T09:33:11;48982.78;;;-143.51;100.00
44309;BME280;30022;55.846;37.340;2023-04-02T09:43:20;49506.47;;;-143.51;100.00
44309;BME280;30022;55.846;37.340;2023-04-02T09:48:32;49265.38;;;-143.51;100.00
44309;BME280;30022;55.846;37.340;2023-04-02T09:51:18;48712.06;;;-143.51;100.00
44309;BME280;30022;55.846;37.340;2023-04-02T09:53:46;48957.09;;;-143.51;100.00
44309;BME280;30022;55.846;37.340;2023-04-02T09:56:20;49186.31;;;-143.51;100.00
44309;BME280;30022;55.846;37.340;2023-04-02T09:59:32;49101.34;;;-143.51;100.00
44309;BME280;30022;55.846;37.340;2023-04-02T10:01:37;49178.41;;;-143.51;100.00
44309;BME280;30022;55.846;37.340;2023-04-02T10:04:04;49034.16;;;-143.51;100.00
44309;BME280;30022;55.846;37.340;2023-04-02T10:06:30;49178.41;;;-143.51;100.00
44309;BME280;30022;55.846;37.340;2023-04-02T10:08:57;48988.72;;;-143.51;100.00
44309;BME280;30022;55.846;37.340;2023-04-02T10:11:27;48862.25;;;-143.51;100.00
44309;BME280;30022;55.846;37.340;2023-04-02T10:14:04;48747.66;;;-143.51;100.00
44309;BME280;30022;55.846;37.340;2023-04-02T10:16:36;49061.81;;;-143.51;100.00
44309;BME280;30022;55.846;37.340;2023-04-02T10:21:59;48753.56;;;-143.51;100.00
44309;BME280;30022;55.846;37.340;2023-04-02T10:24:26;48694.28;;;-143.51;100.00
44309;BME280;30022;55.846;37.340;2023-04-02T10:26:55;48860.28;;;-143.51;100.00
44309;BME280;30022;55.846;37.340;2023-04-02T10:29:27;48777.28;;;-143.51;100.00
44309;BME280;30022;55.846;37.340;2023-04-02T10:34:43;48605.38;;;-143.51;100.00
44309;BME280;30022;55.846;37.340;2023-04-02T10:39:52;48858.28;;;-143.51;100.00
44309;BME280;30022;55.846;37.340;2023-04-02T10:44:54;48469.06;;;-143.51;100.00
44309;BME280;30022;55.846;37.340;2023-04-02T10:52:43;48559.94;;;-143.51;100.00
44309;BME280;30022;55.846;37.340;2023-04-02T10:55:20;48245.78;;;-143.51;100.00
44309;BME280;30022;55.846;37.340;2023-04-02T10:57:47;48538.19;;;-143.51;100.00
44309;BME280;30022;55.846;37.340;2023-04-02T11:00:19;48247.78;;;-143.51;100.00
44309;BME280;30022;55.846;37.340;2023-04-02T11:03:06;48301.13;;;-143.51;100.00
44309;BME280;30022;55.846;37.340;2023-04-02T11:08:21;48739.75;;;-143.51;100.00
44309;BME280;30022;55.846;37.340;2023-04-02T11:10:49;48498.69;;;-143.51;100.00
44309;BME280;30022;55.846;37.340;2023-04-02T11:13:23;48972.91;;;-143.51;100.00
44309;BME280;30022;55.846;37.340;2023-04-02T11:15:50;49022.31;;;-143.51;100.00
44309;BME280;30022;55.846;37.340;2023-04-02T11:18:30;48395.94;;;-143.51;100.00
44309;BME280;30022;55.846;37.340;2023-04-02T11:24:01;48307.03;;;-143.51;100.00
44309;BME280;30022;55.846;37.340;2023-04-02T11:26:39;48708.13;;;-143.51;100.00
44309;BME280;30022;55.846;37.340;2023-04-02T11:31:32;48826.69;;;-143.51;100.00
44309;BME280;30022;55.846;37.340;2023-04-02T11:33:58;48305.06;;;-143.51;100.00
44309;BME280;30022;55.846;37.340;2023-04-02T11:39:11;48158.88;;;-143.51;100.00
44309;BME280;30022;55.846;37.340;2023-04-02T11:44:22;48364.34;;;-143.51;100.00
44309;BME280;30022;55.846;37.340;2023-04-02T11:46:48;47943.53;;;-143.51;100.00
44309;BME280;30022;55.846;37.340;2023-04-02T11:52:18;48133.19;;;-143.51;100.00
44309;BME280;30022;55.846;37.340;2023-04-02T11:54:44;48125.28;;;-143.51;100.00
44309;BME280;30022;55.846;37.340;2023-04-02T11:57:19;48062.06;;;-143.51;100.00
44309;BME280;30022;55.846;37.340;2023-04-02T12:00:14;48686.38;;;-143.51;100.00
44309;BME280;30022;55.846;37.340;2023-04-02T12:02:52;48421.63;;;-143.51;100.00
44309;BME280;30022;55.846;37.340;2023-04-02T12:11:01;48273.47;;;-143.51;100.00
44309;BME280;30022;55.846;37.340;2023-04-02T12:13:02;48322.84;;;-143.51;100.00
44309;BME280;30022;55.846;37.340;2023-04-02T12:15:43;48018.59;;;-143.51;100.00
44309;BME280;30022;55.846;37.340;2023-04-02T12:18:16;47890.19;;;-143.51;100.00
44309;BME280;30022;55.846;37.340;2023-04-02T12:20:45;48083.78;;;-143.51;100.00
44309;BME280;30022;55.846;37.340;2023-04-02T12:23:21;48625.13;;;-143.51;100.00
44309;BME280;30022;55.846;37.340;2023-04-02T12:26:05;48121.34;;;-143.51;100.00
44309;BME280;30022;55.846;37.340;2023-04-02T12:28:32;48115.41;;;-143.51;100.00
44309;BME280;30022;55.846;37.340;2023-04-02T12:33:34;48196.41;;;-143.51;100.00
44309;BME280;30022;55.846;37.340;2023-04-02T12:36:03;48077.88;;;-143.51;100.00
44309;BME280;30022;55.846;37.340;2023-04-02T12:38:30;47998.84;;;-143.51;100.00
44309;BME280;30022;55.846;37.340;2023-04-02T12:40:57;48372.25;;;-143.51;100.00
44309;BME280;30022;55.846;37.340;2023-04-02T12:43:27;48158.88;;;-143.51;100.00
44309;BME280;30022;55.846;37.340;2023-04-02T12:45:54;48297.16;;;-143.51;100.00
44309;BME280;30022;55.846;37.340;2023-04-02T12:48:20;48010.69;;;-143.51;100.00
44309;BME280;30022;55.846;37.340;2023-04-02T12:50:47;47898.09;;;-143.51;100.00
44309;BME280;30022;55.846;37.340;2023-04-02T12:53:20;48168.75;;;-143.51;100.00
44309;BME280;30022;55.846;37.340;2023-04-02T12:55:48;48247.78;;;-143.51;100.00
44309;BME280;30022;55.846;37.340;2023-04-02T13:01:16;47969.22;;;-143.51;100.00
44309;BME280;30022;55.846;37.340;2023-04-02T13:03:43;48064.03;;;-143.51;100.00
44309;BME280;30022;55.846;37.340;2023-04-02T13:06:21;48093.69;;;-143.51;100.00
44309;BME280;30022;55.846;37.340;2023-04-02T13:08:48;48115.41;;;-143.51;100.00
44309;BME280;30022;55.846;37.340;2023-04-02T13:11:14;47890.19;;;-143.51;100.00
44309;BME280;30022;55.846;37.340;2023-04-02T13:13:40;48346.56;;;-143.51;100.00
44309;BME280;30022;55.846;37.340;2023-04-02T13:18:40;48206.28;;;-143.51;100.00
44309;BME280;30022;55.846;37.340;2023-04-02T13:21:21;48228.00;;;-143.51;100.00
44309;BME280;30022;55.846;37.340;2023-04-02T13:23:48;48271.47;;;-143.51;100.00
44309;BME280;30022;55.846;37.340;2023-04-02T13:26:26;48314.94;;;-143.51;100.00
44309;BME280;30022;55.846;37.340;2023-04-02T13:31:33;48062.06;;;-143.51;100.00
44309;BME280;30022;55.846;37.340;2023-04-02T13:33:59;47925.75;;;-143.51;100.00
44309;BME280;30022;55.846;37.340;2023-04-02T13:36:25;48087.75;;;-143.51;100.00
44309;BME280;30022;55.846;37.340;2023-04-02T13:38:53;48273.47;;;-143.51;100.00
44309;BME280;30022;55.846;37.340;2023-04-02T13:41:26;48091.69;;;-143.51;100.00
44309;BME280;30022;55.846;37.340;2023-04-02T13:43:52;48656.75;;;-143.51;100.00
44309;BME280;30022;55.846;37.340;2023-04-02T13:46:20;47927.72;;;-143.51;100.00
44309;BME280;30022;55.846;37.340;2023-04-02T13:48:47;48202.34;;;-143.51;100.00
44309;BME280;30022;55.846;37.340;2023-04-02T13:51:17;48111.44;;;-143.51;100.00
44309;BME280;30022;55.846;37.340;2023-04-02T13:53:46;47965.25;;;-143.51;100.00
44309;BME280;30022;55.846;37.340;2023-04-02T13:56:13;47690.69;;;-143.51;100.00
44309;BME280;30022;55.846;37.340;2023-04-02T13:58:39;48224.06;;;-143.51;100.00
44309;BME280;30022;55.846;37.340;2023-04-02T14:01:05;48577.72;;;-143.51;100.00
44309;BME280;30022;55.846;37.340;2023-04-02T14:03:31;48411.75;;;-143.51;100.00
44309;BME280;30022;55.846;37.340;2023-04-02T14:06:06;48281.34;;;-143.51;100.00
44309;BME280;30022;55.846;37.340;2023-04-02T14:21:10;48644.91;;;-143.51;100.00
44309;BME280;30022;55.846;37.340;2023-04-02T14:31:46;48660.69;;;-143.51;100.00
44309;BME280;30022;55.846;37.340;2023-04-02T14:36:48;48937.34;;;-143.51;100.00
44309;BME280;30022;55.846;37.340;2023-04-02T14:42:00;48775.31;;;-143.51;100.00
44309;BME280;30022;55.846;37.340;2023-04-02T14:44:27;48694.28;;;-143.51;100.00
44309;BME280;30022;55.846;37.340;2023-04-02T14:47:01;48840.50;;;-143.51;100.00
44309;BME280;30022;55.846;37.340;2023-04-02T14:49:34;48546.09;;;-143.51;100.00
44309;BME280;30022;55.846;37.340;2023-04-02T14:52:05;49063.81;;;-143.51;100.00
44309;BME280;30022;55.846;37.340;2023-04-02T14:54:42;49059.84;;;-143.51;100.00
44309;BME280;30022;55.846;37.340;2023-04-02T14:57:16;49000.56;;;-143.51;100.00
44309;BME280;30022;55.846;37.340;2023-04-02T15:05:32;49069.72;;;-143.51;100.00
44309;BME280;30022;55.846;37.340;2023-04-02T15:07:44;48554.00;;;-143.51;100.00
44309;BME280;30022;55.846;37.340;2023-04-02T15:10:25;48718.00;;;-143.51;100.00
44309;BME280;30022;55.846;37.340;2023-04-02T15:12:52;48613.28;;;-143.51;100.00
44309;BME280;30022;55.846;37.340;2023-04-02T15:18:04;49257.47;;;-143.51;100.00
44309;BME280;30022;55.846;37.340;2023-04-02T15:20:35;49354.28;;;-143.51;100.00
44309;BME280;30022;55.846;37.340;2023-04-02T15:30:40;49265.38;;;-143.51;100.00
44309;BME280;30022;55.846;37.340;2023-04-02T15:38:20;48366.31;;;-143.51;100.00
44309;BME280;30022;55.846;37.340;2023-04-02T15:43:30;49391.84;;;-143.51;100.00
44309;BME280;30022;55.846;37.340;2023-04-02T15:48:57;49401.72;;;-143.51;100.00
44309;BME280;30022;55.846;37.340;2023-04-02T15:56:40;49071.69;;;-143.51;100.00
44309;BME280;30022;55.846;37.340;2023-04-02T16:02:03;49502.50;;;-143.51;100.00